sensor_id;sensor_type;location;lat;lon;timestamp;P1;durP1;ratioP1;P2;durP2;ratioP2
6386;SDS011;3226;42.162;24.756;2022-09-03T00:01:17;13.83;;;13.23;;
6386;SDS011;3226;42.162;24.756;2022-09-03T00:03:48;13.70;;;13.00;;
6386;SDS011;3226;42.162;24.756;2022-09-03T00:06:22;9.47;;;9.07;;
6386;SDS011;3226;42.162;24.756;2022-09-03T00:08:54;9.27;;;8.87;;
6386;SDS011;3226;42.162;24.756;2022-09-03T00:11:29;8.97;;;8.57;;
6386;SDS011;3226;42.162;24.756;2022-09-03T00:14:06;9.40;;;9.00;;
6386;SDS011;3226;42.162;24.756;2022-09-03T00:16:42;12.77;;;12.07;;
6386;SDS011;3226;42.162;24.756;2022-09-03T00:19:15;23.37;;;22.27;;
6386;SDS011;3226;42.162;24.756;2022-09-03T00:21:47;34.57;;;32.93;;
6386;SDS011;3226;42.162;24.756;2022-09-03T00:24:23;54.77;;;52.17;;
6386;SDS011;3226;42.162;24.756;2022-09-03T00:26:59;54.93;;;52.33;;
6386;SDS011;3226;42.162;24.756;2022-09-03T00:29:31;64.47;;;61.30;;
6386;SDS011;3226;42.162;24.756;2022-09-03T00:32:05;54.90;;;52.10;;
6386;SDS011;3226;42.162;24.756;2022-09-03T00:34:38;35.73;;;34.03;;
6386;SDS011;3226;42.162;24.756;2022-09-03T00:37:10;25.97;;;24.73;;
6386;SDS011;3226;42.162;24.756;2022-09-03T00:39:41;13.33;;;12.73;;
6386;SDS011;3226;42.162;24.756;2022-09-03T00:42:18;14.90;;;14.20;;
6386;SDS011;3226;42.162;24.756;2022-09-03T00:45:02;21.63;;;20.63;;
6386;SDS011;3226;42.162;24.756;2022-09-03T00:47:45;24.17;;;23.00;;
6386;SDS011;3226;42.162;24.756;2022-09-03T00:50:24;11.93;;;11.40;;
6386;SDS011;3226;42.162;24.756;2022-09-03T00:53:02;10.67;;;10.07;;
6386;SDS011;3226;42.162;24.756;2022-09-03T00:55:38;14.57;;;13.90;;
6386;SDS011;3226;42.162;24.756;2022-09-03T00:58:19;20.17;;;19.23;;
6386;SDS011;3226;42.162;24.756;2022-09-03T01:00:58;40.93;;;39.00;;
6386;SDS011;3226;42.162;24.756;2022-09-03T01:03:34;47.13;;;44.90;;
6386;SDS011;3226;42.162;24.756;2022-09-03T01:06:12;17.80;;;17.00;;
6386;SDS011;3226;42.162;24.756;2022-09-03T01:08:55;14.13;;;13.53;;
6386;SDS011;3226;42.162;24.756;2022-09-03T01:11:32;19.70;;;18.80;;
6386;SDS011;3226;42.162;24.756;2022-09-03T01:14:13;25.07;;;23.87;;
6386;SDS011;3226;42.162;24.756;2022-09-03T01:16:53;12.75;;;12.15;;
6386;SDS011;3226;42.162;24.756;2022-09-03T01:19:34;10.90;;;10.40;;
6386;SDS011;3226;42.162;24.756;2022-09-03T01:22:24;11.50;;;10.93;;
6386;SDS011;3226;42.162;24.756;2022-09-03T01:25:16;13.30;;;12.60;;
6386;SDS011;3226;42.162;24.756;2022-09-03T01:28:03;9.80;;;9.40;;
6386;SDS011;3226;42.162;24.756;2022-09-03T01:30:47;8.97;;;8.57;;
6386;SDS011;3226;42.162;24.756;2022-09-03T01:33:23;8.00;;;7.70;;
6386;SDS011;3226;42.162;24.756;2022-09-03T01:35:59;7.83;;;7.50;;
6386;SDS011;3226;42.162;24.756;2022-09-03T01:38:36;8.10;;;7.77;;
6386;SDS011;3226;42.162;24.756;2022-09-03T01:41:16;9.37;;;8.97;;
6386;SDS011;3226;42.162;24.756;2022-09-03T01:44:13;9.87;;;9.47;;
6386;SDS011;3226;42.162;24.756;2022-09-03T01:46:55;11.27;;;10.77;;
6386;SDS011;3226;42.162;24.756;2022-09-03T01:49:39;9.73;;;9.33;;
6386;SDS011;3226;42.162;24.756;2022-09-03T01:52:15;10.53;;;10.03;;
6386;SDS011;3226;42.162;24.756;2022-09-03T01:54:58;11.83;;;11.23;;
6386;SDS011;3226;42.162;24.756;2022-09-03T01:57:37;8.97;;;8.57;;
6386;SDS011;3226;42.162;24.756;2022-09-03T02:00:13;9.55;;;9.15;;
6386;SDS011;3226;42.162;24.756;2022-09-03T02:02:44;15.50;;;14.80;;
6386;SDS011;3226;42.162;24.756;2022-09-03T02:05:15;12.93;;;12.33;;
6386;SDS011;3226;42.162;24.756;2022-09-03T02:07:45;17.07;;;16.27;;
6386;SDS011;3226;42.162;24.756;2022-09-03T02:10:15;9.17;;;8.77;;
6386;SDS011;3226;42.162;24.756;2022-09-03T02:12:47;8.57;;;8.17;;
6386;SDS011;3226;42.162;24.756;2022-09-03T02:15:22;9.23;;;8.83;;
6386;SDS011;3226;42.162;24.756;2022-09-03T02:17:52;8.00;;;7.67;;
6386;SDS011;3226;42.162;24.756;2022-09-03T02:20:26;8.57;;;8.17;;
6386;SDS011;3226;42.162;24.756;2022-09-03T02:22:56;11.83;;;11.33;;
6386;SDS011;3226;42.162;24.756;2022-09-03T02:25:28;11.40;;;10.90;;
6386;SDS011;3226;42.162;24.756;2022-09-03T02:27:59;11.87;;;11.27;;
6386;SDS011;3226;42.162;24.756;2022-09-03T02:30:29;10.97;;;10.47;;
6386;SDS011;3226;42.162;24.756;2022-09-03T02:32:58;11.27;;;10.77;;
6386;SDS011;3226;42.162;24.756;2022-09-03T02:35:27;9.63;;;9.07;;
6386;SDS011;3226;42.162;24.756;2022-09-03T02:37:55;8.27;;;7.87;;
6386;SDS011;3226;42.162;24.756;2022-09-03T02:40:23;9.40;;;8.67;;
6386;SDS011;3226;42.162;24.756;2022-09-03T02:42:52;9.70;;;9.30;;
6386;SDS011;3226;42.162;24.756;2022-09-03T02:45:23;9.17;;;8.77;;
6386;SDS011;3226;42.162;24.756;2022-09-03T02:47:57;9.13;;;8.73;;
6386;SDS011;3226;42.162;24.756;2022-09-03T02:50:26;8.63;;;8.23;;
6386;SDS011;3226;42.162;24.756;2022-09-03T02:52:54;9.17;;;8.77;;
6386;SDS011;3226;42.162;24.756;2022-09-03T02:55:22;11.00;;;10.40;;
6386;SDS011;3226;42.162;24.756;2022-09-03T02:57:51;12.80;;;12.20;;
6386;SDS011;3226;42.162;24.756;2022-09-03T03:00:19;16.50;;;15.70;;
6386;SDS011;3226;42.162;24.756;2022-09-03T03:02:47;17.40;;;16.60;;
6386;SDS011;3226;42.162;24.756;2022-09-03T03:05:20;25.20;;;24.00;;
6386;SDS011;3226;42.162;24.756;2022-09-03T03:07:56;23.60;;;22.50;;
6386;SDS011;3226;42.162;24.756;2022-09-03T03:10:24;25.47;;;24.27;;
6386;SDS011;3226;42.162;24.756;2022-09-03T03:12:53;17.50;;;16.70;;
6386;SDS011;3226;42.162;24.756;2022-09-03T03:15:22;19.50;;;18.60;;
6386;SDS011;3226;42.162;24.756;2022-09-03T03:17:50;16.13;;;15.40;;
6386;SDS011;3226;42.162;24.756;2022-09-03T03:20:20;9.80;;;9.40;;
6386;SDS011;3226;42.162;24.756;2022-09-03T03:22:48;7.47;;;7.17;;
6386;SDS011;3226;42.162;24.756;2022-09-03T03:25:16;7.87;;;7.53;;
6386;SDS011;3226;42.162;24.756;2022-09-03T03:27:45;8.90;;;8.50;;
6386;SDS011;3226;42.162;24.756;2022-09-03T03:30:13;9.03;;;8.63;;
6386;SDS011;3226;42.162;24.756;2022-09-03T03:32:42;10.73;;;10.23;;
6386;SDS011;3226;42.162;24.756;2022-09-03T03:35:10;20.23;;;19.20;;
6386;SDS011;3226;42.162;24.756;2022-09-03T03:37:40;25.17;;;23.97;;
6386;SDS011;3226;42.162;24.756;2022-09-03T03:40:09;20.20;;;19.27;;
6386;SDS011;3226;42.162;24.756;2022-09-03T03:42:38;14.00;;;13.37;;
6386;SDS011;3226;42.162;24.756;2022-09-03T03:45:07;12.27;;;11.73;;
6386;SDS011;3226;42.162;24.756;2022-09-03T03:47:36;10.13;;;9.70;;
6386;SDS011;3226;42.162;24.756;2022-09-03T03:50:04;10.57;;;10.07;;
6386;SDS011;3226;42.162;24.756;2022-09-03T03:52:33;12.33;;;11.77;;
6386;SDS011;3226;42.162;24.756;2022-09-03T03:55:04;14.97;;;14.27;;
6386;SDS011;3226;42.162;24.756;2022-09-03T03:57:33;18.13;;;17.33;;
6386;SDS011;3226;42.162;24.756;2022-09-03T04:00:02;15.57;;;14.87;;
6386;SDS011;3226;42.162;24.756;2022-09-03T04:02:32;12.40;;;11.83;;
6386;SDS011;3226;42.162;24.756;2022-09-03T04:05:04;10.97;;;10.47;;
6386;SDS011;3226;42.162;24.756;2022-09-03T04:07:33;10.47;;;9.97;;
6386;SDS011;3226;42.162;24.756;2022-09-03T04:10:04;11.27;;;10.77;;
6386;SDS011;3226;42.162;24.756;2022-09-03T04:12:33;9.90;;;9.40;;
6386;SDS011;3226;42.162;24.756;2022-09-03T04:15:01;8.50;;;8.10;;
6386;SDS011;3226;42.162;24.756;2022-09-03T04:17:29;8.60;;;8.20;;
6386;SDS011;3226;42.162;24.756;2022-09-03T04:19:58;10.63;;;10.13;;
6386;SDS011;3226;42.162;24.756;2022-09-03T04:22:27;11.53;;;11.03;;
6386;SDS011;3226;42.162;24.756;2022-09-03T04:24:56;12.63;;;12.03;;
6386;SDS011;3226;42.162;24.756;2022-09-03T04:27:25;10.30;;;9.80;;
6386;SDS011;3226;42.162;24.756;2022-09-03T04:29:53;10.23;;;9.77;;
6386;SDS011;3226;42.162;24.756;2022-09-03T04:32:22;9.10;;;8.70;;
6386;SDS011;3226;42.162;24.756;2022-09-03T04:35:08;7.57;;;7.27;;
6386;SDS011;3226;42.162;24.756;2022-09-03T04:37:36;7.97;;;7.57;;
6386;SDS011;3226;42.162;24.756;2022-09-03T04:40:05;7.70;;;7.40;;
6386;SDS011;3226;42.162;24.756;2022-09-03T04:42:35;8.83;;;8.43;;
6386;SDS011;3226;42.162;24.756;2022-09-03T04:45:03;9.37;;;8.97;;
6386;SDS011;3226;42.162;24.756;2022-09-03T04:47:32;10.23;;;9.75;;
6386;SDS011;3226;42.162;24.756;2022-09-03T04:50:02;7.73;;;7.43;;
6386;SDS011;3226;42.162;24.756;2022-09-03T04:52:30;9.13;;;8.73;;
6386;SDS011;3226;42.162;24.756;2022-09-03T04:54:59;9.03;;;8.63;;
6386;SDS011;3226;42.162;24.756;2022-09-03T04:57:27;8.90;;;8.50;;
6386;SDS011;3226;42.162;24.756;2022-09-03T05:00:01;11.57;;;11.07;;
6386;SDS011;3226;42.162;24.756;2022-09-03T05:02:30;13.83;;;13.20;;
6386;SDS011;3226;42.162;24.756;2022-09-03T05:04:58;12.73;;;12.13;;
6386;SDS011;3226;42.162;24.756;2022-09-03T05:07:26;11.30;;;10.80;;
6386;SDS011;3226;42.162;24.756;2022-09-03T05:10:04;16.57;;;15.77;;
6386;SDS011;3226;42.162;24.756;2022-09-03T05:12:34;14.07;;;13.37;;
6386;SDS011;3226;42.162;24.756;2022-09-03T05:15:04;14.33;;;13.67;;
6386;SDS011;3226;42.162;24.756;2022-09-03T05:17:33;14.30;;;13.30;;
6386;SDS011;3226;42.162;24.756;2022-09-03T05:20:04;11.90;;;11.37;;
6386;SDS011;3226;42.162;24.756;2022-09-03T05:22:34;10.00;;;9.60;;
6386;SDS011;3226;42.162;24.756;2022-09-03T05:25:02;9.70;;;9.30;;
6386;SDS011;3226;42.162;24.756;2022-09-03T05:27:32;9.70;;;9.30;;
6386;SDS011;3226;42.162;24.756;2022-09-03T05:30:00;8.53;;;8.13;;
6386;SDS011;3226;42.162;24.756;2022-09-03T05:32:30;8.73;;;8.33;;
6386;SDS011;3226;42.162;24.756;2022-09-03T05:34:59;8.23;;;7.83;;
6386;SDS011;3226;42.162;24.756;2022-09-03T05:37:27;7.03;;;6.73;;
6386;SDS011;3226;42.162;24.756;2022-09-03T05:39:55;8.40;;;8.00;;
6386;SDS011;3226;42.162;24.756;2022-09-03T05:42:24;9.27;;;8.87;;
6386;SDS011;3226;42.162;24.756;2022-09-03T05:44:54;8.90;;;8.50;;
6386;SDS011;3226;42.162;24.756;2022-09-03T05:47:23;11.17;;;10.67;;
6386;SDS011;3226;42.162;24.756;2022-09-03T05:49:53;10.17;;;9.73;;
6386;SDS011;3226;42.162;24.756;2022-09-03T05:52:21;9.40;;;9.00;;
6386;SDS011;3226;42.162;24.756;2022-09-03T05:54:49;9.60;;;9.20;;
6386;SDS011;3226;42.162;24.756;2022-09-03T05:57:17;9.07;;;8.67;;
6386;SDS011;3226;42.162;24.756;2022-09-03T05:59:45;7.83;;;7.53;;
6386;SDS011;3226;42.162;24.756;2022-09-03T06:02:13;8.37;;;7.97;;
6386;SDS011;3226;42.162;24.756;2022-09-03T06:04:45;7.60;;;7.30;;
6386;SDS011;3226;42.162;24.756;2022-09-03T06:07:14;13.98;;;13.32;;
6386;SDS011;3226;42.162;24.756;2022-09-03T06:09:43;24.97;;;23.80;;
6386;SDS011;3226;42.162;24.756;2022-09-03T06:12:11;16.17;;;15.43;;
6386;SDS011;3226;42.162;24.756;2022-09-03T06:14:39;8.73;;;8.33;;
6386;SDS011;3226;42.162;24.756;2022-09-03T06:17:07;9.20;;;8.80;;
6386;SDS011;3226;42.162;24.756;2022-09-03T06:19:37;11.30;;;10.80;;
6386;SDS011;3226;42.162;24.756;2022-09-03T06:22:06;10.17;;;9.70;;
6386;SDS011;3226;42.162;24.756;2022-09-03T06:24:35;8.97;;;8.57;;
6386;SDS011;3226;42.162;24.756;2022-09-03T06:27:04;14.40;;;13.70;;
6386;SDS011;3226;42.162;24.756;2022-09-03T06:29:32;9.87;;;9.47;;
6386;SDS011;3226;42.162;24.756;2022-09-03T06:32:01;8.00;;;7.70;;
6386;SDS011;3226;42.162;24.756;2022-09-03T06:34:30;8.77;;;8.37;;
6386;SDS011;3226;42.162;24.756;2022-09-03T06:36:59;8.40;;;8.00;;
6386;SDS011;3226;42.162;24.756;2022-09-03T06:39:28;8.87;;;8.47;;
6386;SDS011;3226;42.162;24.756;2022-09-03T06:41:58;8.93;;;8.53;;
6386;SDS011;3226;42.162;24.756;2022-09-03T06:44:26;9.37;;;8.97;;
6386;SDS011;3226;42.162;24.756;2022-09-03T06:46:54;9.10;;;8.50;;
6386;SDS011;3226;42.162;24.756;2022-09-03T06:49:26;7.43;;;7.13;;
6386;SDS011;3226;42.162;24.756;2022-09-03T06:51:56;9.07;;;8.37;;
6386;SDS011;3226;42.162;24.756;2022-09-03T06:54:25;8.80;;;8.40;;
6386;SDS011;3226;42.162;24.756;2022-09-03T06:56:53;8.43;;;8.03;;
6386;SDS011;3226;42.162;24.756;2022-09-03T06:59:23;8.00;;;7.63;;
6386;SDS011;3226;42.162;24.756;2022-09-03T07:01:51;7.73;;;7.43;;
6386;SDS011;3226;42.162;24.756;2022-09-03T07:04:20;7.70;;;7.40;;
6386;SDS011;3226;42.162;24.756;2022-09-03T07:06:50;7.27;;;6.97;;
6386;SDS011;3226;42.162;24.756;2022-09-03T07:09:18;8.03;;;7.63;;
6386;SDS011;3226;42.162;24.756;2022-09-03T07:11:47;11.03;;;10.53;;
6386;SDS011;3226;42.162;24.756;2022-09-03T07:14:15;15.63;;;14.93;;
6386;SDS011;3226;42.162;24.756;2022-09-03T07:16:46;7.70;;;7.40;;
6386;SDS011;3226;42.162;24.756;2022-09-03T07:19:16;15.10;;;14.40;;
6386;SDS011;3226;42.162;24.756;2022-09-03T07:21:44;9.33;;;8.93;;
6386;SDS011;3226;42.162;24.756;2022-09-03T07:24:16;9.93;;;9.53;;
6386;SDS011;3226;42.162;24.756;2022-09-03T07:26:47;8.73;;;8.33;;
6386;SDS011;3226;42.162;24.756;2022-09-03T07:29:16;12.57;;;9.15;;
6386;SDS011;3226;42.162;24.756;2022-09-03T07:31:49;8.37;;;7.97;;
6386;SDS011;3226;42.162;24.756;2022-09-03T07:34:19;8.67;;;8.27;;
6386;SDS011;3226;42.162;24.756;2022-09-03T07:36:51;8.93;;;8.53;;
6386;SDS011;3226;42.162;24.756;2022-09-03T07:39:20;9.07;;;8.67;;
6386;SDS011;3226;42.162;24.756;2022-09-03T07:41:48;9.07;;;8.67;;
6386;SDS011;3226;42.162;24.756;2022-09-03T07:44:16;9.80;;;9.40;;
6386;SDS011;3226;42.162;24.756;2022-09-03T07:46:47;10.37;;;9.87;;
6386;SDS011;3226;42.162;24.756;2022-09-03T07:49:17;8.43;;;8.03;;
6386;SDS011;3226;42.162;24.756;2022-09-03T07:51:47;8.97;;;8.57;;
6386;SDS011;3226;42.162;24.756;2022-09-03T07:54:19;9.10;;;8.70;;
6386;SDS011;3226;42.162;24.756;2022-09-03T07:56:49;8.83;;;8.43;;
6386;SDS011;3226;42.162;24.756;2022-09-03T07:59:17;9.70;;;9.23;;
6386;SDS011;3226;42.162;24.756;2022-09-03T08:01:50;9.10;;;8.70;;
6386;SDS011;3226;42.162;24.756;2022-09-03T08:04:18;7.23;;;6.93;;
6386;SDS011;3226;42.162;24.756;2022-09-03T08:06:47;14.97;;;14.27;;
6386;SDS011;3226;42.162;24.756;2022-09-03T08:09:15;13.67;;;13.07;;
6386;SDS011;3226;42.162;24.756;2022-09-03T08:11:43;9.77;;;9.37;;
6386;SDS011;3226;42.162;24.756;2022-09-03T08:14:12;10.57;;;10.07;;
6386;SDS011;3226;42.162;24.756;2022-09-03T08:16:42;9.30;;;8.90;;
6386;SDS011;3226;42.162;24.756;2022-09-03T08:19:14;8.27;;;7.87;;
6386;SDS011;3226;42.162;24.756;2022-09-03T08:21:44;8.40;;;8.00;;
6386;SDS011;3226;42.162;24.756;2022-09-03T08:24:13;8.87;;;8.47;;
6386;SDS011;3226;42.162;24.756;2022-09-03T08:26:43;8.23;;;7.83;;
6386;SDS011;3226;42.162;24.756;2022-09-03T08:29:17;9.30;;;8.80;;
6386;SDS011;3226;42.162;24.756;2022-09-03T08:31:45;9.63;;;9.23;;
6386;SDS011;3226;42.162;24.756;2022-09-03T08:34:15;9.30;;;8.90;;
6386;SDS011;3226;42.162;24.756;2022-09-03T08:36:44;9.70;;;9.20;;
6386;SDS011;3226;42.162;24.756;2022-09-03T08:39:13;10.23;;;9.73;;
6386;SDS011;3226;42.162;24.756;2022-09-03T08:44:35;11.70;;;11.20;;
6386;SDS011;3226;42.162;24.756;2022-09-03T08:47:11;9.93;;;9.50;;
6386;SDS011;3226;42.162;24.756;2022-09-03T08:49:44;8.70;;;8.30;;
6386;SDS011;3226;42.162;24.756;2022-09-03T08:52:20;7.13;;;6.83;;
6386;SDS011;3226;42.162;24.756;2022-09-03T08:54:57;8.30;;;7.90;;
6386;SDS011;3226;42.162;24.756;2022-09-03T08:57:31;9.13;;;8.73;;
6386;SDS011;3226;42.162;24.756;2022-09-03T09:00:07;10.40;;;9.90;;
6386;SDS011;3226;42.162;24.756;2022-09-03T09:02:38;9.07;;;8.67;;
6386;SDS011;3226;42.162;24.756;2022-09-03T09:05:17;8.30;;;7.90;;
6386;SDS011;3226;42.162;24.756;2022-09-03T09:07:54;8.57;;;8.17;;
6386;SDS011;3226;42.162;24.756;2022-09-03T09:10:30;8.73;;;8.33;;
6386;SDS011;3226;42.162;24.756;2022-09-03T09:13:07;8.33;;;7.93;;
6386;SDS011;3226;42.162;24.756;2022-09-03T09:15:45;9.30;;;8.90;;
6386;SDS011;3226;42.162;24.756;2022-09-03T09:18:19;8.97;;;8.57;;
6386;SDS011;3226;42.162;24.756;2022-09-03T09:20:58;10.67;;;10.17;;
6386;SDS011;3226;42.162;24.756;2022-09-03T09:23:34;10.73;;;10.23;;
6386;SDS011;3226;42.162;24.756;2022-09-03T09:26:09;11.07;;;10.57;;
6386;SDS011;3226;42.162;24.756;2022-09-03T09:28:40;9.67;;;9.27;;
6386;SDS011;3226;42.162;24.756;2022-09-03T09:31:10;9.17;;;8.77;;
6386;SDS011;3226;42.162;24.756;2022-09-03T09:33:44;9.67;;;9.17;;
6386;SDS011;3226;42.162;24.756;2022-09-03T09:36:15;8.10;;;7.70;;
6386;SDS011;3226;42.162;24.756;2022-09-03T09:38:45;8.10;;;7.70;;
6386;SDS011;3226;42.162;24.756;2022-09-03T09:41:15;9.13;;;8.73;;
6386;SDS011;3226;42.162;24.756;2022-09-03T09:43:45;10.80;;;10.30;;
6386;SDS011;3226;42.162;24.756;2022-09-03T09:46:15;12.93;;;12.33;;
6386;SDS011;3226;42.162;24.756;2022-09-03T09:48:48;8.57;;;8.17;;
6386;SDS011;3226;42.162;24.756;2022-09-03T09:51:20;8.33;;;7.93;;
6386;SDS011;3226;42.162;24.756;2022-09-03T09:53:59;8.90;;;8.50;;
6386;SDS011;3226;42.162;24.756;2022-09-03T09:56:28;9.23;;;8.83;;
6386;SDS011;3226;42.162;24.756;2022-09-03T09:59:01;11.93;;;11.40;;
6386;SDS011;3226;42.162;24.756;2022-09-03T10:01:30;11.77;;;11.20;;
6386;SDS011;3226;42.162;24.756;2022-09-03T10:03:59;10.67;;;10.17;;
6386;SDS011;3226;42.162;24.756;2022-09-03T10:06:36;9.23;;;8.83;;
6386;SDS011;3226;42.162;24.756;2022-09-03T10:09:22;10.50;;;10.00;;
6386;SDS011;3226;42.162;24.756;2022-09-03T10:12:00;9.97;;;9.57;;
6386;SDS011;3226;42.162;24.756;2022-09-03T10:14:41;10.53;;;10.03;;
6386;SDS011;3226;42.162;24.756;2022-09-03T10:17:16;9.60;;;9.20;;
6386;SDS011;3226;42.162;24.756;2022-09-03T10:20:03;9.37;;;8.97;;
6386;SDS011;3226;42.162;24.756;2022-09-03T10:22:58;12.10;;;11.50;;
6386;SDS011;3226;42.162;24.756;2022-09-03T10:25:39;9.27;;;8.87;;
6386;SDS011;3226;42.162;24.756;2022-09-03T10:28:19;9.37;;;8.97;;
6386;SDS011;3226;42.162;24.756;2022-09-03T10:30:59;8.87;;;8.47;;
6386;SDS011;3226;42.162;24.756;2022-09-03T10:33:45;8.53;;;8.13;;
6386;SDS011;3226;42.162;24.756;2022-09-03T10:36:19;10.67;;;10.17;;
6386;SDS011;3226;42.162;24.756;2022-09-03T10:38:54;8.53;;;8.13;;
6386;SDS011;3226;42.162;24.756;2022-09-03T10:41:32;9.33;;;8.93;;
6386;SDS011;3226;42.162;24.756;2022-09-03T10:47:11;10.63;;;10.13;;
6386;SDS011;3226;42.162;24.756;2022-09-03T10:49:50;10.13;;;9.63;;
6386;SDS011;3226;42.162;24.756;2022-09-03T10:52:25;9.63;;;9.23;;
6386;SDS011;3226;42.162;24.756;2022-09-03T10:55:03;9.67;;;9.27;;
6386;SDS011;3226;42.162;24.756;2022-09-03T10:57:44;10.10;;;9.67;;
6386;SDS011;3226;42.162;24.756;2022-09-03T11:00:16;10.33;;;9.73;;
6386;SDS011;3226;42.162;24.756;2022-09-03T11:02:57;11.87;;;11.37;;
6386;SDS011;3226;42.162;24.756;2022-09-03T11:05:50;9.47;;;9.07;;
6386;SDS011;3226;42.162;24.756;2022-09-03T11:08:26;9.77;;;9.37;;
6386;SDS011;3226;42.162;24.756;2022-09-03T11:11:03;11.67;;;11.17;;
6386;SDS011;3226;42.162;24.756;2022-09-03T11:13:37;9.77;;;9.27;;
6386;SDS011;3226;42.162;24.756;2022-09-03T11:16:10;8.67;;;8.27;;
6386;SDS011;3226;42.162;24.756;2022-09-03T11:18:46;9.03;;;8.57;;
6386;SDS011;3226;42.162;24.756;2022-09-03T11:21:19;8.30;;;7.90;;
6386;SDS011;3226;42.162;24.756;2022-09-03T11:23:52;8.37;;;7.97;;
6386;SDS011;3226;42.162;24.756;2022-09-03T11:26:27;9.67;;;9.27;;
6386;SDS011;3226;42.162;24.756;2022-09-03T11:28:57;10.47;;;9.97;;
6386;SDS011;3226;42.162;24.756;2022-09-03T11:31:31;8.80;;;8.40;;
6386;SDS011;3226;42.162;24.756;2022-09-03T11:34:11;8.20;;;7.80;;
6386;SDS011;3226;42.162;24.756;2022-09-03T11:36:49;9.20;;;8.80;;
6386;SDS011;3226;42.162;24.756;2022-09-03T11:39:18;9.93;;;9.53;;
6386;SDS011;3226;42.162;24.756;2022-09-03T11:41:57;9.03;;;8.63;;
6386;SDS011;3226;42.162;24.756;2022-09-03T11:44:35;10.93;;;10.43;;
6386;SDS011;3226;42.162;24.756;2022-09-03T11:47:20;11.37;;;10.87;;
6386;SDS011;3226;42.162;24.756;2022-09-03T11:49:50;12.27;;;11.67;;
6386;SDS011;3226;42.162;24.756;2022-09-03T11:52:25;9.70;;;9.30;;
6386;SDS011;3226;42.162;24.756;2022-09-03T11:54:55;9.00;;;8.60;;
6386;SDS011;3226;42.162;24.756;2022-09-03T11:57:26;8.70;;;8.30;;
6386;SDS011;3226;42.162;24.756;2022-09-03T12:00:06;8.77;;;8.37;;
6386;SDS011;3226;42.162;24.756;2022-09-03T12:02:41;9.33;;;8.93;;
6386;SDS011;3226;42.162;24.756;2022-09-03T12:05:13;9.47;;;8.97;;
6386;SDS011;3226;42.162;24.756;2022-09-03T12:07:59;8.73;;;8.33;;
6386;SDS011;3226;42.162;24.756;2022-09-03T12:10:47;8.40;;;8.00;;
6386;SDS011;3226;42.162;24.756;2022-09-03T12:13:25;8.47;;;8.07;;
6386;SDS011;3226;42.162;24.756;2022-09-03T12:16:13;9.30;;;8.90;;
6386;SDS011;3226;42.162;24.756;2022-09-03T12:19:09;9.47;;;9.07;;
6386;SDS011;3226;42.162;24.756;2022-09-03T12:21:47;10.90;;;10.40;;
6386;SDS011;3226;42.162;24.756;2022-09-03T12:24:16;10.83;;;10.33;;
6386;SDS011;3226;42.162;24.756;2022-09-03T12:26:46;10.03;;;9.53;;
6386;SDS011;3226;42.162;24.756;2022-09-03T12:29:23;9.00;;;8.60;;
6386;SDS011;3226;42.162;24.756;2022-09-03T12:32:04;9.97;;;9.57;;
6386;SDS011;3226;42.162;24.756;2022-09-03T12:34:34;12.13;;;11.57;;
6386;SDS011;3226;42.162;24.756;2022-09-03T12:37:03;11.60;;;11.10;;
6386;SDS011;3226;42.162;24.756;2022-09-03T12:40:14;8.07;;;7.70;;
6386;SDS011;3226;42.162;24.756;2022-09-03T12:42:46;8.27;;;7.87;;
6386;SDS011;3226;42.162;24.756;2022-09-03T12:45:19;9.13;;;8.73;;
6386;SDS011;3226;42.162;24.756;2022-09-03T12:47:49;8.33;;;7.93;;
6386;SDS011;3226;42.162;24.756;2022-09-03T12:50:19;9.77;;;9.30;;
6386;SDS011;3226;42.162;24.756;2022-09-03T12:52:49;7.83;;;7.53;;
6386;SDS011;3226;42.162;24.756;2022-09-03T12:55:24;8.00;;;7.60;;
6386;SDS011;3226;42.162;24.756;2022-09-03T12:57:59;8.63;;;8.23;;
6386;SDS011;3226;42.162;24.756;2022-09-03T13:00:40;8.93;;;8.53;;
6386;SDS011;3226;42.162;24.756;2022-09-03T13:03:14;8.70;;;8.30;;
6386;SDS011;3226;42.162;24.756;2022-09-03T13:05:46;9.27;;;8.87;;
6386;SDS011;3226;42.162;24.756;2022-09-03T13:08:19;8.93;;;8.33;;
6386;SDS011;3226;42.162;24.756;2022-09-03T13:10:50;8.57;;;8.17;;
6386;SDS011;3226;42.162;24.756;2022-09-03T13:13:22;8.27;;;7.87;;
6386;SDS011;3226;42.162;24.756;2022-09-03T13:18:55;9.10;;;8.70;;
6386;SDS011;3226;42.162;24.756;2022-09-03T13:21:31;11.90;;;11.40;;
6386;SDS011;3226;42.162;24.756;2022-09-03T13:24:13;10.90;;;10.40;;
6386;SDS011;3226;42.162;24.756;2022-09-03T13:26:58;7.87;;;7.57;;
6386;SDS011;3226;42.162;24.756;2022-09-03T13:29:37;7.80;;;7.50;;
6386;SDS011;3226;42.162;24.756;2022-09-03T13:32:16;8.73;;;8.33;;
6386;SDS011;3226;42.162;24.756;2022-09-03T13:34:56;7.60;;;7.30;;
6386;SDS011;3226;42.162;24.756;2022-09-03T13:37:30;7.97;;;7.60;;
6386;SDS011;3226;42.162;24.756;2022-09-03T13:40:08;7.50;;;7.20;;
6386;SDS011;3226;42.162;24.756;2022-09-03T13:42:44;8.40;;;8.00;;
6386;SDS011;3226;42.162;24.756;2022-09-03T13:45:26;8.23;;;7.83;;
6386;SDS011;3226;42.162;24.756;2022-09-03T13:48:00;8.90;;;8.50;;
6386;SDS011;3226;42.162;24.756;2022-09-03T13:50:57;7.60;;;7.30;;
6386;SDS011;3226;42.162;24.756;2022-09-03T13:53:33;9.37;;;8.97;;
6386;SDS011;3226;42.162;24.756;2022-09-03T13:56:13;10.10;;;9.60;;
6386;SDS011;3226;42.162;24.756;2022-09-03T13:58:48;9.70;;;9.30;;
6386;SDS011;3226;42.162;24.756;2022-09-03T14:01:25;8.13;;;7.77;;
6386;SDS011;3226;42.162;24.756;2022-09-03T14:04:09;9.33;;;8.93;;
6386;SDS011;3226;42.162;24.756;2022-09-03T14:06:41;10.33;;;9.83;;
6386;SDS011;3226;42.162;24.756;2022-09-03T14:09:19;8.93;;;8.53;;
6386;SDS011;3226;42.162;24.756;2022-09-03T14:11:57;8.23;;;7.83;;
6386;SDS011;3226;42.162;24.756;2022-09-03T14:14:37;8.10;;;7.70;;
6386;SDS011;3226;42.162;24.756;2022-09-03T14:17:13;7.67;;;7.37;;
6386;SDS011;3226;42.162;24.756;2022-09-03T14:19:47;8.90;;;8.50;;
6386;SDS011;3226;42.162;24.756;2022-09-03T14:22:23;9.37;;;8.97;;
6386;SDS011;3226;42.162;24.756;2022-09-03T14:24:57;9.73;;;9.30;;
6386;SDS011;3226;42.162;24.756;2022-09-03T14:27:28;8.87;;;8.47;;
6386;SDS011;3226;42.162;24.756;2022-09-03T14:29:58;9.10;;;8.70;;
6386;SDS011;3226;42.162;24.756;2022-09-03T14:32:30;8.40;;;8.00;;
6386;SDS011;3226;42.162;24.756;2022-09-03T14:35:13;9.23;;;8.83;;
6386;SDS011;3226;42.162;24.756;2022-09-03T14:41:04;11.57;;;11.07;;
6386;SDS011;3226;42.162;24.756;2022-09-03T14:43:50;8.87;;;8.47;;
6386;SDS011;3226;42.162;24.756;2022-09-03T14:46:46;9.87;;;9.37;;
6386;SDS011;3226;42.162;24.756;2022-09-03T14:49:25;8.80;;;8.40;;
6386;SDS011;3226;42.162;24.756;2022-09-03T14:52:13;11.63;;;11.13;;
6386;SDS011;3226;42.162;24.756;2022-09-03T14:55:00;8.50;;;8.10;;
6386;SDS011;3226;42.162;24.756;2022-09-03T14:57:52;8.67;;;8.27;;
6386;SDS011;3226;42.162;24.756;2022-09-03T15:00:35;7.93;;;7.60;;
6386;SDS011;3226;42.162;24.756;2022-09-03T15:06:22;9.27;;;8.87;;
6386;SDS011;3226;42.162;24.756;2022-09-03T15:09:14;9.13;;;8.73;;
6386;SDS011;3226;42.162;24.756;2022-09-03T15:11:50;10.07;;;9.60;;
6386;SDS011;3226;42.162;24.756;2022-09-03T15:14:25;9.10;;;8.70;;
6386;SDS011;3226;42.162;24.756;2022-09-03T15:16:58;8.90;;;8.50;;
6386;SDS011;3226;42.162;24.756;2022-09-03T15:19:37;8.50;;;8.10;;
6386;SDS011;3226;42.162;24.756;2022-09-03T15:22:18;8.23;;;7.83;;
6386;SDS011;3226;42.162;24.756;2022-09-03T15:25:02;8.33;;;7.93;;
6386;SDS011;3226;42.162;24.756;2022-09-03T15:27:41;8.10;;;7.80;;
6386;SDS011;3226;42.162;24.756;2022-09-03T15:30:21;10.17;;;9.67;;
6386;SDS011;3226;42.162;24.756;2022-09-03T15:32:55;9.50;;;9.10;;
6386;SDS011;3226;42.162;24.756;2022-09-03T15:35:33;8.77;;;8.37;;
6386;SDS011;3226;42.162;24.756;2022-09-03T15:38:18;8.57;;;8.17;;
6386;SDS011;3226;42.162;24.756;2022-09-03T15:40:53;8.30;;;7.90;;
6386;SDS011;3226;42.162;24.756;2022-09-03T15:43:26;8.17;;;7.77;;
6386;SDS011;3226;42.162;24.756;2022-09-03T15:45:58;8.20;;;7.80;;
6386;SDS011;3226;42.162;24.756;2022-09-03T15:48:32;8.40;;;8.00;;